Time;durP1;ratioP1;P1;durP2;ratioP2;P2;SDS_P1;SDS_P2;PMS_P1;PMS_P2;Temp;Humidity;BMP_temperature;BMP_pressure;BME280_temperature;BME280_humidity;BME280_pressure;Samples;Min_cycle;Max_cycle;Signal;HPM_P1;HPM_P2
2023/03/02 00:02:11;;;;;;;15.80;10.10;;;3.80;93.60;;;;;;5045837;28;20235;-32
2023/03/02 00:04:56;;;;;;;16.17;10.63;;;3.80;93.60;;;;;;5034939;28;20704;-32
2023/03/02 00:07:30;;;;;;;16.67;9.87;;;3.70;93.60;;;;;;5027593;28;20208;-32
2023/03/02 00:10:00;;;;;;;16.53;10.67;;;3.70;93.60;;;;;;5063417;28;20226;-32
2023/03/02 00:12:32;;;;;;;15.97;11.17;;;3.70;93.60;;;;;;5066447;28;20235;-33
2023/03/02 00:15:02;;;;;;;14.23;9.80;;;3.60;93.60;;;;;;5066452;28;20200;-32
2023/03/02 00:17:31;;;;;;;13.63;9.97;;;3.60;93.60;;;;;;5065464;28;20227;-32
2023/03/02 00:20:09;;;;;;;15.00;10.03;;;3.60;93.70;;;;;;5066201;28;20203;-33
2023/03/02 00:22:40;;;;;;;16.07;10.47;;;3.60;93.60;;;;;;5065403;28;20284;-32
2023/03/02 00:25:08;;;;;;;15.00;10.00;;;3.50;93.60;;;;;;5063717;28;20210;-33
2023/03/02 00:27:38;;;;;;;16.23;10.37;;;3.60;93.60;;;;;;5045959;28;20262;-32
2023/03/02 00:30:06;;;;;;;15.63;10.50;;;3.60;93.60;;;;;;5046627;28;20232;-32
2023/03/02 00:32:34;;;;;;;16.10;10.17;;;3.60;93.60;;;;;;5044665;28;20208;-32
2023/03/02 00:35:01;;;;;;;16.67;10.33;;;3.50;93.50;;;;;;5044530;28;20738;-33
2023/03/02 00:37:28;;;;;;;14.63;9.77;;;3.50;93.60;;;;;;5060076;28;20330;-33
2023/03/02 00:39:55;;;;;;;18.20;9.97;;;3.50;93.60;;;;;;5044710;28;20204;-33
2023/03/02 00:42:23;;;;;;;16.40;9.73;;;3.50;93.60;;;;;;5043345;28;20315;-32
2023/03/02 00:44:53;;;;;;;14.63;9.67;;;3.40;93.60;;;;;;5045861;28;20254;-32
2023/03/02 00:47:22;;;;;;;15.67;10.03;;;3.40;93.60;;;;;;5043037;28;20230;-32
2023/03/02 00:49:52;;;;;;;15.97;10.17;;;3.40;93.60;;;;;;5065368;28;20238;-32
2023/03/02 00:52:21;;;;;;;16.00;9.90;;;3.40;93.60;;;;;;5065509;28;20841;-32
2023/03/02 00:54:49;;;;;;;16.43;10.33;;;3.40;93.60;;;;;;5066191;28;20346;-30
2023/03/02 00:57:18;;;;;;;16.73;10.47;;;3.40;93.60;;;;;;5065516;28;20215;-31
2023/03/02 00:59:50;;;;;;;17.83;10.93;;;3.40;93.60;;;;;;5064816;28;20207;-32
2023/03/02 01:02:17;;;;;;;17.27;10.33;;;3.40;93.60;;;;;;5065078;28;20247;-31
2023/03/02 01:04:45;;;;;;;15.33;10.13;;;3.40;93.50;;;;;;5065967;28;20207;-32
2023/03/02 01:07:17;;;;;;;16.20;9.50;;;3.30;93.50;;;;;;5065543;28;20222;-32
2023/03/02 01:09:52;;;;;;;16.07;10.13;;;3.30;93.50;;;;;;5064231;28;20195;-32
2023/03/02 01:12:19;;;;;;;16.90;9.93;;;3.30;93.50;;;;;;5063800;28;20214;-32
2023/03/02 01:14:47;;;;;;;17.87;10.80;;;3.30;93.50;;;;;;5065712;28;20243;-32
2023/03/02 01:17:15;;;;;;;15.90;10.23;;;3.20;93.50;;;;;;5053516;28;20211;-32
2023/03/02 01:19:42;;;;;;;14.13;9.90;;;3.20;93.50;;;;;;5046494;28;20230;-33
2023/03/02 01:22:12;;;;;;;15.33;10.00;;;3.20;93.50;;;;;;5043339;28;20230;-32
2023/03/02 01:24:42;;;;;;;14.33;10.13;;;3.10;93.40;;;;;;5027436;28;20199;-32
2023/03/02 01:27:11;;;;;;;16.20;10.00;;;3.10;93.50;;;;;;5043946;28;20295;-32
2023/03/02 01:29:41;;;;;;;15.27;10.00;;;3.10;93.50;;;;;;5044606;28;20597;-32
2023/03/02 01:32:08;;;;;;;14.73;10.07;;;3.00;93.40;;;;;;5030382;28;20304;-32
2023/03/02 01:34:38;;;;;;;16.83;10.37;;;3.00;93.40;;;;;;5041300;28;20617;-32
2023/03/02 01:37:07;;;;;;;13.80;9.77;;;3.00;93.40;;;;;;5024874;28;20223;-32
2023/03/02 01:39:37;;;;;;;18.57;11.03;;;3.00;93.40;;;;;;5042614;28;20223;-31
2023/03/02 01:42:04;;;;;;;15.47;10.13;;;2.90;93.40;;;;;;5041952;28;20731;-32
2023/03/02 01:44:38;;;;;;;18.97;11.00;;;2.90;93.40;;;;;;5043092;28;20739;-32
2023/03/02 01:47:22;;;;;;;15.70;10.43;;;2.80;93.40;;;;;;5042939;28;20286;-32
2023/03/02 01:49:58;;;;;;;16.00;10.80;;;2.80;93.40;;;;;;5045480;28;20204;-32
2023/03/02 01:52:29;;;;;;;14.80;9.57;;;2.80;93.50;;;;;;5063855;28;20309;-32
2023/03/02 01:55:02;;;;;;;16.37;10.40;;;2.70;93.30;;;;;;5064882;28;20208;-32
2023/03/02 01:57:33;;;;;;;14.10;9.93;;;2.80;93.40;;;;;;5064509;28;20281;-32
2023/03/02 02:00:07;;;;;;;15.07;9.50;;;2.70;93.40;;;;;;5042060;28;20750;-32
2023/03/02 02:02:35;;;;;;;14.37;9.57;;;2.70;93.50;;;;;;5044175;28;20227;-32
2023/03/02 02:05:07;;;;;;;14.67;9.43;;;2.70;93.50;;;;;;5031537;28;20217;-32
2023/03/02 02:07:35;;;;;;;14.10;8.73;;;2.70;93.50;;;;;;5042391;28;20563;-33
2023/03/02 02:10:02;;;;;;;15.50;9.97;;;2.70;93.50;;;;;;5043503;28;20192;-31
2023/03/02 02:12:36;;;;;;;15.10;10.40;;;2.70;93.40;;;;;;5043222;28;20224;-32
2023/03/02 02:15:06;;;;;;;15.77;10.40;;;2.70;93.50;;;;;;5046551;28;20200;-32
2023/03/02 02:17:36;;;;;;;15.50;9.83;;;2.70;93.40;;;;;;5027559;28;20742;-31
2023/03/02 02:20:38;;;;;;;15.17;9.67;;;2.80;93.50;;;;;;5046114;28;20315;-32
2023/03/02 02:23:19;;;;;;;14.23;9.27;;;2.70;93.60;;;;;;5047395;28;20243;-31
2023/03/02 02:25:52;;;;;;;12.70;9.30;;;2.80;93.60;;;;;;5047774;28;20318;-31
2023/03/02 02:28:43;;;;;;;15.30;9.80;;;2.70;93.50;;;;;;5046235;28;20200;-32
2023/03/02 02:31:33;;;;;;;15.40;9.37;;;2.70;93.50;;;;;;5047553;28;20220;-32
2023/03/02 02:34:21;;;;;;;13.30;8.83;;;2.70;93.90;;;;;;5046919;28;20192;-32
2023/03/02 02:36:53;;;;;;;18.30;10.17;;;2.70;93.60;;;;;;5053529;28;20294;-32
2023/03/02 02:39:27;;;;;;;16.20;9.33;;;2.70;93.60;;;;;;5033073;28;20224;-32
2023/03/02 02:41:58;;;;;;;14.07;9.70;;;2.70;93.60;;;;;;5042827;28;20203;-32
2023/03/02 02:44:25;;;;;;;15.73;9.63;;;2.70;93.70;;;;;;5050598;28;20207;-32
2023/03/02 02:46:52;;;;;;;14.30;9.63;;;2.70;93.70;;;;;;5026914;28;20319;-31
2023/03/02 02:49:31;;;;;;;19.47;10.30;;;2.60;93.70;;;;;;5047559;28;20566;-32
2023/03/02 02:51:58;;;;;;;15.57;9.80;;;2.70;93.80;;;;;;5046906;28;20728;-32
2023/03/02 02:54:30;;;;;;;15.33;8.73;;;2.60;93.60;;;;;;5062125;28;20660;-32
2023/03/02 02:57:02;;;;;;;14.13;8.93;;;2.60;93.70;;;;;;5047921;28;20303;-31
2023/03/02 02:59:36;;;;;;;14.07;8.70;;;2.60;93.90;;;;;;5048646;28;20699;-32
2023/03/02 03:02:03;;;;;;;14.23;8.53;;;2.60;93.80;;;;;;5046672;28;20246;-32
2023/03/02 03:04:31;;;;;;;16.37;9.13;;;2.50;93.60;;;;;;5047606;28;20200;-32
2023/03/02 03:07:04;;;;;;;16.50;8.87;;;2.50;93.50;;;;;;5048003;28;20231;-32
2023/03/02 03:09:31;;;;;;;12.50;8.53;;;2.60;93.50;;;;;;5047831;28;20696;-31
2023/03/02 03:12:17;;;;;;;13.70;9.67;;;2.60;93.60;;;;;;5048177;28;20208;-34
2023/03/02 03:14:50;;;;;;;14.77;9.40;;;2.50;93.70;;;;;;5046855;28;20771;-32
2023/03/02 03:17:19;;;;;;;16.23;8.53;;;2.50;93.70;;;;;;5026151;28;20229;-31
2023/03/02 03:19:48;;;;;;;13.43;8.73;;;2.50;93.60;;;;;;5026448;28;20220;-32
2023/03/02 03:22:20;;;;;;;19.27;9.03;;;2.50;93.70;;;;;;5025799;28;20233;-32
2023/03/02 03:24:52;;;;;;;18.10;9.13;;;2.40;93.60;;;;;;5026018;28;20305;-32
2023/03/02 03:27:21;;;;;;;14.37;9.10;;;2.40;93.80;;;;;;5027315;28;20502;-32
2023/03/02 03:29:49;;;;;;;14.67;9.20;;;2.40;93.60;;;;;;5030359;28;20557;-31
2023/03/02 03:32:21;;;;;;;16.57;9.83;;;2.40;93.50;;;;;;5064692;28;20322;-32
2023/03/02 03:34:51;;;;;;;13.10;9.03;;;2.40;93.50;;;;;;5049829;28;20249;-31
2023/03/02 03:37:19;;;;;;;15.60;9.20;;;2.40;93.50;;;;;;5066447;28;20231;-32
2023/03/02 03:39:51;;;;;;;17.70;9.93;;;2.40;93.50;;;;;;5066652;28;20558;-32
2023/03/02 03:42:18;;;;;;;13.70;8.70;;;2.30;93.70;;;;;;5066601;28;20235;-32
2023/03/02 03:44:47;;;;;;;13.57;8.97;;;2.30;93.60;;;;;;5046948;28;20634;-32
2023/03/02 03:47:21;;;;;;;17.70;10.13;;;2.30;93.50;;;;;;5045041;28;20197;-34
2023/03/02 03:49:53;;;;;;;12.13;8.47;;;2.30;93.70;;;;;;5049532;28;20211;-32
2023/03/02 03:52:29;;;;;;;14.47;10.00;;;2.30;93.50;;;;;;5045936;28;20208;-32
2023/03/02 03:55:00;;;;;;;14.53;9.23;;;2.30;93.60;;;;;;5046796;28;20262;-32
2023/03/02 03:57:28;;;;;;;15.33;9.37;;;2.20;93.60;;;;;;5046376;28;20220;-32
2023/03/02 03:59:57;;;;;;;13.83;9.17;;;2.20;93.60;;;;;;5046624;28;20215;-32
2023/03/02 04:02:25;;;;;;;18.30;10.07;;;2.20;93.60;;;;;;5044714;28;20224;-32
2023/03/02 04:04:54;;;;;;;13.37;9.40;;;2.20;93.70;;;;;;5044844;28;20192;-32
2023/03/02 04:07:21;;;;;;;11.53;8.43;;;2.10;93.80;;;;;;5057229;28;20708;-32
2023/03/02 04:10:02;;;;;;;14.33;9.23;;;2.10;93.70;;;;;;5064942;28;20693;-32
2023/03/02 04:12:33;;;;;;;13.57;9.30;;;2.10;93.60;;;;;;5066092;28;20192;-32
2023/03/02 04:15:00;;;;;;;12.10;8.33;;;2.10;93.60;;;;;;5066382;28;20211;-33
2023/03/02 04:17:30;;;;;;;14.53;9.13;;;2.10;93.60;;;;;;5064200;28;20218;-32
2023/03/02 04:20:04;;;;;;;14.13;8.97;;;2.10;93.70;;;;;;5064821;28;20203;-33
2023/03/02 04:22:34;;;;;;;12.67;9.03;;;2.10;93.60;;;;;;5065059;28;20309;-32
2023/03/02 04:25:01;;;;;;;13.87;8.50;;;2.00;94.00;;;;;;5047678;28;20226;-32
2023/03/02 04:27:30;;;;;;;13.87;9.43;;;2.00;93.80;;;;;;5043937;28;20277;-32
2023/03/02 04:29:57;;;;;;;15.13;9.30;;;2.00;93.90;;;;;;5046288;28;20196;-33
2023/03/02 04:32:27;;;;;;;12.00;8.97;;;1.90;94.00;;;;;;5045706;28;20279;-33
2023/03/02 04:35:01;;;;;;;12.00;8.23;;;1.90;94.10;;;;;;5044262;28;20695;-32
2023/03/02 04:37:28;;;;;;;13.07;8.20;;;1.90;93.70;;;;;;5044553;28;20575;-32
2023/03/02 04:39:58;;;;;;;12.93;9.30;;;1.90;93.90;;;;;;5061072;28;20235;-32
2023/03/02 04:42:27;;;;;;;13.23;8.93;;;1.90;93.90;;;;;;5044922;28;20256;-32
2023/03/02 04:44:57;;;;;;;14.33;8.87;;;1.90;93.80;;;;;;5059941;28;20211;-31
2023/03/02 04:47:31;;;;;;;14.33;9.43;;;1.90;93.60;;;;;;5043007;28;20236;-33
2023/03/02 04:49:58;;;;;;;12.73;8.83;;;1.90;93.80;;;;;;5043967;28;20214;-32
2023/03/02 04:52:27;;;;;;;16.27;9.27;;;1.90;93.70;;;;;;5029197;28;20220;-32
2023/03/02 04:54:59;;;;;;;15.03;10.50;;;1.90;93.70;;;;;;5042385;28;20227;-32
2023/03/02 04:57:31;;;;;;;13.53;8.53;;;1.90;93.60;;;;;;5045363;28;20702;-33
2023/03/02 04:59:58;;;;;;;13.23;9.40;;;1.90;93.80;;;;;;5042774;28;20200;-32
2023/03/02 05:02:27;;;;;;;15.10;9.73;;;1.90;93.70;;;;;;5043595;28;20746;-33
2023/03/02 05:04:54;;;;;;;13.57;8.63;;;1.80;93.80;;;;;;5045210;28;20203;-33
2023/03/02 05:07:21;;;;;;;13.90;9.17;;;1.80;94.00;;;;;;5044874;28;20210;-32
2023/03/02 05:09:55;;;;;;;16.07;9.67;;;1.80;93.80;;;;;;5045505;28;20192;-33
2023/03/02 05:12:23;;;;;;;13.33;8.83;;;1.80;94.00;;;;;;5043409;28;20534;-32
2023/03/02 05:14:52;;;;;;;14.27;9.00;;;1.80;94.00;;;;;;5043226;28;20214;-33
2023/03/02 05:17:21;;;;;;;14.63;8.63;;;1.80;94.00;;;;;;5043534;28;20236;-32
2023/03/02 05:19:53;;;;;;;15.53;9.10;;;1.80;93.80;;;;;;5054822;28;20214;-33
2023/03/02 05:22:20;;;;;;;14.03;9.03;;;1.80;94.10;;;;;;5062906;28;20203;-32
2023/03/02 05:24:52;;;;;;;14.73;8.97;;;1.70;94.10;;;;;;5063054;28;20269;-32
2023/03/02 05:27:24;;;;;;;13.83;8.90;;;1.70;94.10;;;;;;5065356;28;20203;-32
2023/03/02 05:29:53;;;;;;;13.67;9.10;;;1.70;94.10;;;;;;5064978;28;20666;-33
2023/03/02 05:32:25;;;;;;;13.20;9.10;;;1.70;94.00;;;;;;5063755;28;20728;-32
2023/03/02 05:34:54;;;;;;;15.07;9.17;;;1.70;93.80;;;;;;5063330;28;20347;-33
2023/03/02 05:37:23;;;;;;;14.37;8.40;;;1.70;93.90;;;;;;5064665;28;20225;-31
2023/03/02 05:39:53;;;;;;;13.70;8.10;;;1.70;94.00;;;;;;5064935;28;20199;-33
2023/03/02 05:42:20;;;;;;;13.03;8.30;;;1.60;94.10;;;;;;5063415;28;20330;-32
2023/03/02 05:44:49;;;;;;;13.47;8.63;;;1.70;94.00;;;;;;5064573;28;20327;-31
2023/03/02 05:47:17;;;;;;;15.90;8.73;;;1.70;93.80;;;;;;5064630;28;20231;-32
2023/03/02 05:49:44;;;;;;;11.60;8.47;;;1.70;93.80;;;;;;5065331;28;20222;-32
2023/03/02 05:52:11;;;;;;;10.20;7.27;;;1.70;93.90;;;;;;5067278;28;20286;-32
2023/03/02 05:54:38;;;;;;;13.90;8.43;;;1.70;94.00;;;;;;5063411;28;20231;-32
2023/03/02 05:57:08;;;;;;;14.30;7.87;;;1.70;94.00;;;;;;5047696;28;20204;-33
2023/03/02 05:59:35;;;;;;;12.97;8.17;;;1.70;94.10;;;;;;5047249;28;20314;-33
2023/03/02 06:02:06;;;;;;;11.90;7.67;;;1.70;94.00;;;;;;5045283;28;20211;-32
2023/03/02 06:04:41;;;;;;;13.33;8.20;;;1.70;94.00;;;;;;5043285;28;20231;-33
2023/03/02 06:07:16;;;;;;;12.07;8.23;;;1.60;94.30;;;;;;5047150;28;20257;-33
2023/03/02 06:09:43;;;;;;;14.13;8.33;;;1.60;94.20;;;;;;5045177;28;20262;-33
2023/03/02 06:12:11;;;;;;;13.63;9.03;;;1.60;94.20;;;;;;5045337;28;20322;-32
2023/03/02 06:14:38;;;;;;;14.33;8.80;;;1.60;94.10;;;;;;5048715;28;20692;-33
2023/03/02 06:17:05;;;;;;;14.97;8.57;;;1.60;94.10;;;;;;5047826;28;20218;-33
2023/03/02 06:19:34;;;;;;;13.10;8.50;;;1.60;94.40;;;;;;5048424;28;20683;-33
2023/03/02 06:22:04;;;;;;;13.30;8.60;;;1.60;94.20;;;;;;5048758;28;20614;-33
2023/03/02 06:24:35;;;;;;;13.33;7.93;;;1.60;94.00;;;;;;5045668;28;20216;-33
2023/03/02 06:27:03;;;;;;;13.37;8.47;;;1.50;94.00;;;;;;5047708;28;20670;-32
2023/03/02 06:29:32;;;;;;;13.77;7.83;;;1.60;94.10;;;;;;5046285;28;20207;-32
2023/03/02 06:32:04;;;;;;;12.13;8.17;;;1.60;93.90;;;;;;5047895;28;20216;-32
2023/03/02 06:34:34;;;;;;;11.80;8.03;;;1.60;94.10;;;;;;5047925;28;20683;-32
2023/03/02 06:37:01;;;;;;;13.40;8.63;;;1.60;94.30;;;;;;5048400;28;20669;-33
2023/03/02 06:39:29;;;;;;;14.60;9.00;;;1.50;94.40;;;;;;5046563;28;20208;-32
2023/03/02 06:41:56;;;;;;;14.03;8.07;;;1.50;94.30;;;;;;5048125;28;20220;-33
2023/03/02 06:44:25;;;;;;;11.53;7.10;;;1.50;94.10;;;;;;5046542;28;20216;-33
2023/03/02 06:46:57;;;;;;;14.27;8.60;;;1.50;94.10;;;;;;5048007;28;20577;-32
2023/03/02 06:49:25;;;;;;;11.70;8.50;;;1.50;94.10;;;;;;5047672;28;20199;-33
2023/03/02 06:51:54;;;;;;;12.07;6.97;;;1.50;94.30;;;;;;5027126;28;20677;-32
2023/03/02 06:54:24;;;;;;;14.27;8.27;;;1.50;94.10;;;;;;5027427;28;20236;-32
2023/03/02 06:56:51;;;;;;;11.53;7.80;;;1.50;94.10;;;;;;5036079;28;20506;-33
2023/03/02 06:59:20;;;;;;;13.40;8.47;;;1.50;94.40;;;;;;5045417;28;20246;-32
2023/03/02 07:01:49;;;;;;;12.47;7.97;;;1.50;94.10;;;;;;5041415;28;20277;-32
2023/03/02 07:04:19;;;;;;;11.67;8.27;;;1.50;94.30;;;;;;5036680;28;20257;-33
2023/03/02 07:06:48;;;;;;;13.90;8.50;;;1.50;94.20;;;;;;5041843;28;20722;-32
2023/03/02 07:09:17;;;;;;;15.63;8.70;;;1.50;94.50;;;;;;5044877;28;20256;-32
2023/03/02 07:11:47;;;;;;;12.93;7.77;;;1.60;94.40;;;;;;5042521;28;20201;-32
2023/03/02 07:14:16;;;;;;;13.73;8.77;;;1.50;94.30;;;;;;5046793;28;20209;-32
2023/03/02 07:16:45;;;;;;;12.10;8.20;;;1.60;94.30;;;;;;5045609;28;20208;-32
2023/03/02 07:19:15;;;;;;;11.63;7.90;;;1.60;94.40;;;;;;5048808;28;20298;-33
2023/03/02 07:21:44;;;;;;;13.03;8.60;;;1.60;94.40;;;;;;5056988;28;20208;-33
2023/03/02 07:24:12;;;;;;;18.90;10.07;;;1.60;94.40;;;;;;5045935;28;20216;-31
2023/03/02 07:26:43;;;;;;;14.97;8.83;;;1.60;94.30;;;;;;5061810;28;20216;-32
2023/03/02 07:29:10;;;;;;;16.37;8.90;;;1.60;94.50;;;;;;5046805;28;20290;-33
2023/03/02 07:31:45;;;;;;;12.97;7.93;;;1.60;94.70;;;;;;5045411;28;20270;-32
2023/03/02 07:34:15;;;;;;;15.57;8.87;;;1.60;94.50;;;;;;5047468;28;20204;-33
2023/03/02 07:36:42;;;;;;;14.13;8.50;;;1.60;94.70;;;;;;5039834;28;20227;-32
2023/03/02 07:39:09;;;;;;;12.73;8.53;;;1.60;94.80;;;;;;5008464;28;20458;-33
2023/03/02 07:41:41;;;;;;;14.30;9.07;;;1.70;94.60;;;;;;5027187;28;20299;-33
2023/03/02 07:44:10;;;;;;;14.93;8.50;;;1.70;94.60;;;;;;5024556;28;20658;-32
2023/03/02 07:46:40;;;;;;;14.30;8.83;;;1.70;94.60;;;;;;5044040;28;20258;-33
2023/03/02 07:49:07;;;;;;;11.67;8.03;;;1.80;94.90;;;;;;5024172;28;20228;-32
2023/03/02 07:51:37;;;;;;;13.27;8.37;;;1.80;94.80;;;;;;5025713;28;20316;-32
2023/03/02 07:54:04;;;;;;;15.17;8.63;;;1.80;94.80;;;;;;5041535;28;20228;-33
2023/03/02 07:56:31;;;;;;;13.33;8.20;;;1.80;94.80;;;;;;5045040;28;20672;-32
2023/03/02 07:58:58;;;;;;;13.37;9.07;;;1.80;94.70;;;;;;5044215;28;20223;-33
2023/03/02 08:01:26;;;;;;;11.07;8.27;;;1.90;94.80;;;;;;5044976;28;20589;-33
2023/03/02 08:03:53;;;;;;;17.43;8.93;;;1.90;94.90;;;;;;5042484;28;20219;-32
2023/03/02 08:06:20;;;;;;;17.43;8.83;;;2.00;94.70;;;;;;5043582;28;20208;-32
2023/03/02 08:08:50;;;;;;;16.23;9.30;;;2.00;94.90;;;;;;5063745;28;20207;-32
2023/03/02 08:11:20;;;;;;;13.13;8.77;;;2.00;95.00;;;;;;5051544;28;20286;-32
2023/03/02 08:13:47;;;;;;;16.63;9.20;;;2.10;94.90;;;;;;5043308;28;20204;-31
2023/03/02 08:16:15;;;;;;;12.93;9.00;;;2.20;95.00;;;;;;5027363;28;20261;-33
2023/03/02 08:18:44;;;;;;;13.27;8.50;;;2.20;94.80;;;;;;5045336;28;20687;-33
2023/03/02 08:21:20;;;;;;;14.80;9.07;;;2.30;94.80;;;;;;5049443;28;20302;-32
2023/03/02 08:23:51;;;;;;;12.70;7.97;;;2.30;95.10;;;;;;5059987;28;20234;-32
2023/03/02 08:26:19;;;;;;;13.33;8.73;;;2.40;95.00;;;;;;5046312;28;20262;-32
2023/03/02 08:28:49;;;;;;;13.90;8.43;;;2.50;95.10;;;;;;5046032;28;20569;-32
2023/03/02 08:31:16;;;;;;;14.27;9.03;;;2.50;95.10;;;;;;5046093;28;20707;-32
2023/03/02 08:33:44;;;;;;;13.67;8.23;;;2.50;95.50;;;;;;5063819;28;20203;-32
2023/03/02 08:36:17;;;;;;;15.80;8.63;;;2.60;95.10;;;;;;5065998;28;20249;-33
2023/03/02 08:38:46;;;;;;;13.83;9.03;;;2.70;95.30;;;;;;5065228;28;20211;-32
2023/03/02 08:41:22;;;;;;;14.03;9.13;;;2.70;95.20;;;;;;5048365;28;20216;-32
2023/03/02 08:43:54;;;;;;;14.27;8.37;;;2.80;95.40;;;;;;5035832;28;20226;-33
2023/03/02 08:46:24;;;;;;;13.00;8.10;;;2.80;95.40;;;;;;5045772;28;20705;-33
2023/03/02 08:48:58;;;;;;;18.87;9.13;;;2.80;95.50;;;;;;5059554;28;20228;-33
2023/03/02 08:51:26;;;;;;;13.87;8.40;;;2.90;95.50;;;;;;5045466;28;20207;-32
2023/03/02 08:53:56;;;;;;;16.53;9.00;;;2.90;95.50;;;;;;5038010;28;20239;-33
2023/03/02 08:56:30;;;;;;;12.57;7.97;;;2.90;95.80;;;;;;5043736;28;20274;-33
2023/03/02 08:59:03;;;;;;;13.77;8.13;;;2.90;95.70;;;;;;5043436;28;21450;-33
2023/03/02 09:01:35;;;;;;;15.60;8.87;;;3.00;95.60;;;;;;5039951;28;20208;-33
2023/03/02 09:04:09;;;;;;;15.50;8.77;;;3.10;95.70;;;;;;5054297;28;20223;-33
2023/03/02 09:06:40;;;;;;;13.90;8.90;;;3.20;95.60;;;;;;5040471;28;20220;-33
2023/03/02 09:09:08;;;;;;;13.43;8.90;;;3.20;96.00;;;;;;5036705;28;20291;-33
2023/03/02 09:11:41;;;;;;;12.53;8.57;;;3.20;95.90;;;;;;5039720;28;20205;-32
2023/03/02 09:14:08;;;;;;;15.47;9.60;;;3.30;95.90;;;;;;5041901;28;20294;-33
2023/03/02 09:16:38;;;;;;;16.57;8.90;;;3.30;95.90;;;;;;5034787;28;20692;-33
2023/03/02 09:19:11;;;;;;;15.90;9.00;;;3.40;95.90;;;;;;5041905;28;20622;-34
2023/03/02 09:21:42;;;;;;;15.67;8.87;;;3.50;96.00;;;;;;5044618;28;20214;-34
2023/03/02 09:24:09;;;;;;;13.17;8.97;;;3.60;96.00;;;;;;5043754;28;20330;-34
2023/03/02 09:26:38;;;;;;;17.07;9.83;;;3.60;95.90;;;;;;5043391;28;20868;-34
2023/03/02 09:29:08;;;;;;;14.30;9.27;;;3.70;96.10;;;;;;5043772;28;20261;-34
2023/03/02 09:31:36;;;;;;;13.37;9.10;;;3.80;96.10;;;;;;5044797;28;20281;-34
2023/03/02 09:34:08;;;;;;;17.17;9.77;;;3.80;96.00;;;;;;5044756;28;20773;-34
2023/03/02 09:36:36;;;;;;;17.23;9.83;;;3.90;96.10;;;;;;5045209;28;20202;-34
2023/03/02 09:39:08;;;;;;;17.00;9.50;;;4.00;96.20;;;;;;5051543;28;20249;-33
2023/03/02 09:41:41;;;;;;;13.70;9.13;;;4.00;96.20;;;;;;5031165;28;20231;-33
2023/03/02 09:44:27;;;;;;;15.33;9.57;;;4.10;96.30;;;;;;5042561;28;20220;-34
2023/03/02 09:47:04;;;;;;;12.33;8.33;;;4.20;96.30;;;;;;5046293;28;20695;-34
2023/03/02 09:49:53;;;;;;;15.83;9.37;;;4.20;96.30;;;;;;5043056;28;20196;-32
2023/03/02 09:52:39;;;;;;;16.87;9.67;;;4.30;96.40;;;;;;5060856;28;20719;-33
2023/03/02 09:55:14;;;;;;;15.33;9.47;;;4.40;96.40;;;;;;5044508;28;20295;-33
2023/03/02 09:57:42;;;;;;;14.00;9.23;;;4.40;96.50;;;;;;5061845;28;20223;-33
2023/03/02 10:00:24;;;;;;;17.13;9.87;;;4.50;96.50;;;;;;5060285;28;20203;-33
2023/03/02 10:03:05;;;;;;;14.67;9.20;;;4.60;96.50;;;;;;5044693;28;20204;-33
2023/03/02 10:05:48;;;;;;;15.27;9.90;;;4.60;96.50;;;;;;5044507;28;20669;-32
2023/03/02 10:08:24;;;;;;;15.93;9.23;;;4.70;96.60;;;;;;5042694;28;20734;-33
2023/03/02 10:11:13;;;;;;;16.73;9.87;;;4.80;96.60;;;;;;5043558;28;20202;-33
2023/03/02 10:14:12;;;;;;;17.17;10.13;;;4.80;96.80;;;;;;5024243;28;20766;-32
2023/03/02 10:17:00;;;;;;;19.13;10.30;;;4.90;96.60;;;;;;5035588;28;20322;-32
2023/03/02 10:19:41;;;;;;;18.03;10.67;;;4.90;96.70;;;;;;5048381;28;20291;-33
2023/03/02 10:22:22;;;;;;;16.03;10.20;;;5.10;96.70;;;;;;5034694;28;20209;-33
2023/03/02 10:24:56;;;;;;;18.80;10.50;;;5.10;96.70;;;;;;5024450;28;20774;-33
2023/03/02 10:27:43;;;;;;;16.37;10.40;;;5.20;96.80;;;;;;5036087;28;20236;-32
2023/03/02 10:30:19;;;;;;;13.87;9.63;;;5.20;96.80;;;;;;5057750;28;20258;-33
2023/03/02 10:32:54;;;;;;;15.27;10.33;;;5.30;96.80;;;;;;5043055;28;20201;-32
2023/03/02 10:35:27;;;;;;;15.63;10.80;;;5.40;96.90;;;;;;5046740;28;20613;-33
2023/03/02 10:38:06;;;;;;;15.20;10.20;;;5.50;96.90;;;;;;5058563;28;20211;-33
2023/03/02 10:40:48;;;;;;;15.90;11.23;;;5.50;96.90;;;;;;5063524;28;20266;-33
2023/03/02 10:43:28;;;;;;;15.57;10.30;;;5.60;97.00;;;;;;5031108;28;20682;-32
2023/03/02 10:46:01;;;;;;;15.43;10.43;;;5.60;96.90;;;;;;5050926;28;20230;-32
2023/03/02 10:48:28;;;;;;;17.23;10.87;;;5.70;97.00;;;;;;5047156;28;20200;-34
2023/03/02 10:50:57;;;;;;;16.90;10.63;;;5.80;97.10;;;;;;5046098;28;20204;-32
2023/03/02 10:53:28;;;;;;;17.83;11.30;;;5.90;97.10;;;;;;5046023;28;20284;-32
2023/03/02 10:55:58;;;;;;;19.73;10.97;;;5.90;97.00;;;;;;5043863;28;20210;-33
2023/03/02 10:58:31;;;;;;;16.47;11.37;;;6.00;97.10;;;;;;5042328;28;20283;-33
2023/03/02 11:01:00;;;;;;;21.37;11.23;;;6.10;97.00;;;;;;5039280;28;20211;-33
2023/03/02 11:03:28;;;;;;;19.57;12.23;;;6.10;97.30;;;;;;5032752;28;20223;-33
2023/03/02 11:05:57;;;;;;;17.97;11.67;;;6.20;97.10;;;;;;5044296;28;20731;-33
2023/03/02 11:08:31;;;;;;;19.57;12.30;;;6.30;97.20;;;;;;5045002;28;20212;-33
2023/03/02 11:11:03;;;;;;;18.67;12.43;;;6.30;97.20;;;;;;5080473;28;20211;-32
2023/03/02 11:13:31;;;;;;;18.03;11.83;;;6.30;97.10;;;;;;5058042;28;20658;-32
2023/03/02 11:16:20;;;;;;;18.60;11.27;;;6.30;97.10;;;;;;5052291;28;20320;-33
2023/03/02 11:18:58;;;;;;;18.40;12.00;;;6.30;97.20;;;;;;5047636;28;20224;-32
2023/03/02 11:21:31;;;;;;;18.27;11.87;;;6.40;97.20;;;;;;5044861;28;20208;-32
2023/03/02 11:24:32;;;;;;;16.70;11.60;;;6.50;97.20;;;;;;5047343;28;20207;-33
2023/03/02 11:27:15;;;;;;;16.73;11.70;;;6.50;97.30;;;;;;5039424;28;20523;-33
2023/03/02 11:29:53;;;;;;;18.63;12.10;;;6.60;97.40;;;;;;5053066;28;20231;-33
2023/03/02 11:32:30;;;;;;;20.43;12.27;;;6.70;97.40;;;;;;5060403;28;20212;-33
2023/03/02 11:35:04;;;;;;;19.90;12.50;;;6.70;97.20;;;;;;5059884;28;20225;-32
2023/03/02 11:37:53;;;;;;;17.43;11.57;;;6.80;97.40;;;;;;5049301;28;20239;-33
2023/03/02 11:40:43;;;;;;;18.47;11.67;;;6.80;97.50;;;;;;5044429;28;20200;-33
2023/03/02 11:43:17;;;;;;;19.10;12.07;;;6.90;97.40;;;;;;5026646;28;20267;-33
2023/03/02 11:46:13;;;;;;;20.97;12.30;;;6.90;97.30;;;;;;5053339;28;20294;-32
2023/03/02 11:48:51;;;;;;;18.30;13.00;;;7.00;97.50;;;;;;5031136;28;20729;-32
2023/03/02 11:51:34;;;;;;;18.53;12.33;;;7.00;97.40;;;;;;5045146;28;20239;-31
2023/03/02 11:54:10;;;;;;;19.97;12.23;;;7.10;97.40;;;;;;5038879;28;20290;-32
2023/03/02 11:56:41;;;;;;;18.43;11.73;;;7.20;97.60;;;;;;5057692;28;20237;-31
2023/03/02 11:59:18;;;;;;;19.20;11.67;;;7.30;97.80;;;;;;5049862;28;20235;-32
2023/03/02 12:01:53;;;;;;;21.33;13.17;;;7.40;97.60;;;;;;5061450;28;20761;-31
2023/03/02 12:04:34;;;;;;;17.67;12.17;;;7.40;97.80;;;;;;5062213;28;20268;-32
2023/03/02 12:07:14;;;;;;;19.37;12.10;;;7.50;97.70;;;;;;5045599;28;20207;-32
2023/03/02 12:10:09;;;;;;;18.57;11.97;;;7.50;97.50;;;;;;5043586;28;20453;-32
2023/03/02 12:12:47;;;;;;;17.27;11.53;;;7.50;97.50;;;;;;5026910;28;20566;-34
2023/03/02 12:15:35;;;;;;;17.57;11.27;;;7.60;97.50;;;;;;5039405;28;20599;-34
2023/03/02 12:18:15;;;;;;;17.93;11.37;;;7.70;97.80;;;;;;5061165;28;20237;-34
2023/03/02 12:20:46;;;;;;;19.37;12.67;;;7.80;97.80;;;;;;5044927;28;20208;-33
2023/03/02 12:23:23;;;;;;;18.77;12.43;;;7.80;97.80;;;;;;5045483;28;20197;-33
2023/03/02 12:26:23;;;;;;;19.17;12.33;;;7.90;97.30;;;;;;5031886;28;20232;-32
2023/03/02 12:29:08;;;;;;;18.33;11.97;;;8.00;98.20;;;;;;5026585;28;20695;-33
2023/03/02 12:31:45;;;;;;;19.57;12.10;;;8.10;97.60;;;;;;5045933;28;20274;-33
2023/03/02 12:34:44;;;;;;;19.87;12.57;;;8.10;97.70;;;;;;5043604;28;20675;-33
2023/03/02 12:37:22;;;;;;;19.70;12.43;;;8.20;97.70;;;;;;5050764;28;20200;-33
2023/03/02 12:40:14;;;;;;;19.17;12.47;;;8.20;97.70;;;;;;5047356;28;20299;-33
2023/03/02 12:43:18;;;;;;;18.93;12.80;;;8.30;97.50;;;;;;5073688;28;20238;-32
2023/03/02 12:46:12;;;;;;;20.10;12.97;;;8.40;97.60;;;;;;5062159;28;20223;-32
2023/03/02 12:48:47;;;;;;;20.10;13.17;;;8.30;97.70;;;;;;5042616;28;20216;-32
2023/03/02 12:51:32;;;;;;;25.67;14.90;;;8.40;97.80;;;;;;5041982;28;20200;-32
2023/03/02 12:54:13;;;;;;;24.83;15.67;;;8.50;97.60;;;;;;5041567;28;20357;-35
2023/03/02 12:56:45;;;;;;;29.00;15.77;;;8.50;98.00;;;;;;5039139;28;20220;-33
2023/03/02 12:59:26;;;;;;;25.90;17.30;;;8.60;97.70;;;;;;5044216;28;20227;-33
2023/03/02 13:02:14;;;;;;;29.23;18.43;;;8.70;97.50;;;;;;5026488;28;20739;-33
2023/03/02 13:04:50;;;;;;;27.10;20.07;;;8.70;97.60;;;;;;5023819;28;20619;-33
2023/03/02 13:07:25;;;;;;;30.97;18.93;;;8.80;97.80;;;;;;5043133;28;20335;-33
2023/03/02 13:09:58;;;;;;;29.27;19.23;;;8.80;97.60;;;;;;5041983;28;20258;-33
2023/03/02 13:12:28;;;;;;;29.13;18.30;;;8.90;97.70;;;;;;5039756;28;20208;-33